Impacts TAF Board
For situational awareness. Not to be used for flight planning purposes.
IDs:

KBWI - Baltimore-Washington, MD, US

Issued at 2103 UTC 21 Sep 2021
Updated at 2246 UTC 21 Sep 2021
Potential Impact None Slight Moderate High
Time2154Z 21/23Z 22/00Z 22/01Z 22/02Z 22/03Z 22/04Z 22/05Z 22/06Z 22/07Z 22/08Z 22/09Z 22/10Z 22/11Z>>
Type OBS PRVL PRVL PRVL PRVL PRVL PRVL PRVL PRVL PRVL PRVL PRVL PRVL PRVL
VIS 10 >6 >6 >6 >6 >6 >6 >6 >6 >6 >6 >6 >6 >6
CIG 75 30 30 30 30 30 30 15 15 15 15 15 15 15
Cover BKN BKN BKN BKN BKN BKN BKN BKN BKN BKN BKN BKN BKN BKN
FltCat VFR MVFR MVFR MVFR MVFR MVFR MVFR MVFR MVFR MVFR MVFR MVFR MVFR MVFR
WX -- -- -- -- -- -- -- -- -- -- -- -- -- --
WDir 110 90 90 90 90 90 90 110 110 110 110 110 110 110
WSpd 10 10 10 10 10 10 10 5 5 5 5 5 5 5
WGst -- -- -- -- -- -- -- -- -- -- -- -- -- --
Raw TAF
KBWI 212103Z 2121/2224 09010KT P6SM BKN030 BKN200
  FM220500 11005KT P6SM BKN015
  FM221300 14010KT 5SM BR BKN008
  FM221500 14012KT 6SM BR OVC015
  FM221700 15014G21KT P6SM BKN020


Raw METAR
KBWI 212154Z 11010KT 10SM FEW032 SCT040 BKN075 BKN200 26/18 A3019 RMK AO2 SLP223 T02610183
KBWI 212054Z 09010KT 10SM SCT037 BKN075 BKN200 27/18 A3020 RMK AO2 SLP225 T02670178 56014
KBWI 211954Z 12010KT 10SM FEW033 BKN041 BKN075 BKN200 27/17 A3021 RMK AO2 SLP228 T02720172

METAR Board
Radar Display
Forecast Discussion
For situational awareness. Not to be used for flight planning purposes.